Athens Ben Epps Airport Athens US
ICAO: KAHN
IATA: AHN
Category: Medium
Scheduled Services: Yes

Elevation: 808 ft
TransAlt. 18000 ft.

Airport Communications:
ATLANTA APP/DEP:127.5
ASOS:132.875
ATLANTA CNTR:127.5
CTAF:126.3
GND:121.8
MACON RDO:109.6
TWR:126.3
UNICOM:122.95

KAHN Zoom In..

If Map Doesn't Load, Click Here

Runways:

(A) RW 02 length 3955 ft width 100 ft
---- / hdg 24

(B) RW 09 length 5522 ft width 100 ft
---- / hdg 91

(C) RW 20 length 3955 ft width 100 ft
---- / hdg 204

(D) RW 27 length 5522 ft width 100 ft
ILS 110.95 / hdg 271

Location; KAHN
Day. 21 / Time. 13.51 Zulu
* Altimeter: 30.23
* Temperature: 24° c. 75.2°f.
* Wind from: 090° Speed 04 kn.
Dewpoint: 21° c.
Visibility: 10 Statute Miles.
Clouds: Overcast 1500 ft.

KAHN 211351Z 09004KT 10SM OVC015 24/21 A3023 RMK AO2 SLP230 T02440206


Wind From 090°
Speed 04 kn.

 
 
jpsmedia.com for Web Design worldairports.se 2018   terms of use